sensor_id;sensor_type;location;lat;lon;timestamp;P1;durP1;ratioP1;P2;durP2;ratioP2
64601;SDS011;68371;42.630;23.192;2023-05-24T00:01:24;7.50;;;4.20;;
64601;SDS011;68371;42.630;23.192;2023-05-24T00:03:50;6.00;;;3.72;;
64601;SDS011;68371;42.630;23.192;2023-05-24T00:06:18;7.47;;;4.10;;
64601;SDS011;68371;42.630;23.192;2023-05-24T00:08:45;9.55;;;4.30;;
64601;SDS011;68371;42.630;23.192;2023-05-24T00:11:12;6.85;;;4.15;;
64601;SDS011;68371;42.630;23.192;2023-05-24T00:13:38;8.27;;;4.57;;
64601;SDS011;68371;42.630;23.192;2023-05-24T00:16:08;5.57;;;3.50;;
64601;SDS011;68371;42.630;23.192;2023-05-24T00:18:34;6.47;;;3.17;;
64601;SDS011;68371;42.630;23.192;2023-05-24T00:21:05;5.45;;;3.25;;
64601;SDS011;68371;42.630;23.192;2023-05-24T00:23:32;8.68;;;3.42;;
64601;SDS011;68371;42.630;23.192;2023-05-24T00:25:59;4.95;;;3.13;;
64601;SDS011;68371;42.630;23.192;2023-05-24T00:28:26;6.03;;;3.88;;
64601;SDS011;68371;42.630;23.192;2023-05-24T00:30:52;5.57;;;3.50;;
64601;SDS011;68371;42.630;23.192;2023-05-24T00:33:20;6.60;;;3.92;;
64601;SDS011;68371;42.630;23.192;2023-05-24T00:35:48;6.50;;;4.00;;
64601;SDS011;68371;42.630;23.192;2023-05-24T00:38:18;8.15;;;3.83;;
64601;SDS011;68371;42.630;23.192;2023-05-24T00:40:45;7.03;;;3.85;;
64601;SDS011;68371;42.630;23.192;2023-05-24T00:43:13;10.25;;;3.92;;
64601;SDS011;68371;42.630;23.192;2023-05-24T00:45:39;6.00;;;3.60;;
64601;SDS011;68371;42.630;23.192;2023-05-24T00:48:06;6.90;;;4.20;;
64601;SDS011;68371;42.630;23.192;2023-05-24T00:50:35;7.25;;;3.55;;
64601;SDS011;68371;42.630;23.192;2023-05-24T00:53:03;5.82;;;3.50;;
64601;SDS011;68371;42.630;23.192;2023-05-24T00:55:30;5.65;;;3.70;;
64601;SDS011;68371;42.630;23.192;2023-05-24T00:57:59;9.55;;;4.13;;
64601;SDS011;68371;42.630;23.192;2023-05-24T01:00:27;13.98;;;4.32;;
64601;SDS011;68371;42.630;23.192;2023-05-24T01:02:55;7.18;;;4.13;;
64601;SDS011;68371;42.630;23.192;2023-05-24T01:05:22;7.80;;;3.75;;
64601;SDS011;68371;42.630;23.192;2023-05-24T01:07:53;13.50;;;3.70;;
64601;SDS011;68371;42.630;23.192;2023-05-24T01:10:30;8.35;;;3.65;;
64601;SDS011;68371;42.630;23.192;2023-05-24T01:13:03;6.55;;;4.20;;
64601;SDS011;68371;42.630;23.192;2023-05-24T01:15:40;7.57;;;3.85;;
64601;SDS011;68371;42.630;23.192;2023-05-24T01:18:16;8.27;;;3.78;;
64601;SDS011;68371;42.630;23.192;2023-05-24T01:20:50;5.93;;;3.50;;
64601;SDS011;68371;42.630;23.192;2023-05-24T01:23:30;12.60;;;3.60;;
64601;SDS011;68371;42.630;23.192;2023-05-24T01:26:18;6.15;;;3.60;;
64601;SDS011;68371;42.630;23.192;2023-05-24T01:28:56;5.45;;;3.45;;
64601;SDS011;68371;42.630;23.192;2023-05-24T01:31:24;6.30;;;3.65;;
64601;SDS011;68371;42.630;23.192;2023-05-24T01:33:50;7.53;;;4.10;;
64601;SDS011;68371;42.630;23.192;2023-05-24T01:36:17;5.30;;;3.30;;
64601;SDS011;68371;42.630;23.192;2023-05-24T01:38:45;6.45;;;3.95;;
64601;SDS011;68371;42.630;23.192;2023-05-24T01:41:17;6.40;;;3.83;;
64601;SDS011;68371;42.630;23.192;2023-05-24T01:43:52;6.57;;;3.50;;
64601;SDS011;68371;42.630;23.192;2023-05-24T01:46:30;6.60;;;3.63;;
64601;SDS011;68371;42.630;23.192;2023-05-24T01:49:03;8.63;;;3.60;;
64601;SDS011;68371;42.630;23.192;2023-05-24T01:51:37;10.07;;;3.75;;
64601;SDS011;68371;42.630;23.192;2023-05-24T01:54:11;4.88;;;3.35;;
64601;SDS011;68371;42.630;23.192;2023-05-24T01:56:40;6.10;;;4.10;;
64601;SDS011;68371;42.630;23.192;2023-05-24T01:59:14;5.80;;;3.78;;
64601;SDS011;68371;42.630;23.192;2023-05-24T02:01:42;6.38;;;3.70;;
64601;SDS011;68371;42.630;23.192;2023-05-24T02:04:10;11.13;;;4.35;;
64601;SDS011;68371;42.630;23.192;2023-05-24T02:06:37;8.35;;;3.78;;
64601;SDS011;68371;42.630;23.192;2023-05-24T02:09:04;7.65;;;3.25;;
64601;SDS011;68371;42.630;23.192;2023-05-24T02:11:30;5.57;;;3.42;;
64601;SDS011;68371;42.630;23.192;2023-05-24T02:13:57;7.50;;;3.80;;
64601;SDS011;68371;42.630;23.192;2023-05-24T02:16:25;5.47;;;3.70;;
64601;SDS011;68371;42.630;23.192;2023-05-24T02:18:54;7.40;;;3.53;;
64601;SDS011;68371;42.630;23.192;2023-05-24T02:21:21;7.10;;;3.85;;
64601;SDS011;68371;42.630;23.192;2023-05-24T02:23:48;9.00;;;3.58;;
64601;SDS011;68371;42.630;23.192;2023-05-24T02:26:15;5.20;;;3.45;;
64601;SDS011;68371;42.630;23.192;2023-05-24T02:28:45;4.82;;;3.47;;
64601;SDS011;68371;42.630;23.192;2023-05-24T02:31:12;5.20;;;3.28;;
64601;SDS011;68371;42.630;23.192;2023-05-24T02:33:42;6.80;;;3.65;;
64601;SDS011;68371;42.630;23.192;2023-05-24T02:36:10;9.00;;;3.20;;
64601;SDS011;68371;42.630;23.192;2023-05-24T02:38:37;7.53;;;3.92;;
64601;SDS011;68371;42.630;23.192;2023-05-24T02:41:04;5.97;;;3.58;;
64601;SDS011;68371;42.630;23.192;2023-05-24T02:43:33;5.40;;;3.63;;
64601;SDS011;68371;42.630;23.192;2023-05-24T02:45:59;5.43;;;3.53;;
64601;SDS011;68371;42.630;23.192;2023-05-24T02:48:26;5.38;;;3.42;;
64601;SDS011;68371;42.630;23.192;2023-05-24T02:50:54;5.65;;;3.08;;
64601;SDS011;68371;42.630;23.192;2023-05-24T02:53:21;8.95;;;4.35;;
64601;SDS011;68371;42.630;23.192;2023-05-24T02:55:48;11.25;;;5.22;;
64601;SDS011;68371;42.630;23.192;2023-05-24T02:58:18;10.80;;;5.75;;
64601;SDS011;68371;42.630;23.192;2023-05-24T03:00:45;9.95;;;5.80;;
64601;SDS011;68371;42.630;23.192;2023-05-24T03:03:12;12.32;;;6.18;;
64601;SDS011;68371;42.630;23.192;2023-05-24T03:05:40;12.82;;;5.90;;
64601;SDS011;68371;42.630;23.192;2023-05-24T03:08:08;13.73;;;6.95;;
64601;SDS011;68371;42.630;23.192;2023-05-24T03:10:35;15.77;;;8.00;;
64601;SDS011;68371;42.630;23.192;2023-05-24T03:13:02;10.70;;;6.03;;
64601;SDS011;68371;42.630;23.192;2023-05-24T03:15:29;11.48;;;6.00;;
64601;SDS011;68371;42.630;23.192;2023-05-24T03:17:55;9.80;;;6.15;;
64601;SDS011;68371;42.630;23.192;2023-05-24T03:20:22;12.00;;;6.68;;
64601;SDS011;68371;42.630;23.192;2023-05-24T03:22:49;15.13;;;6.65;;
64601;SDS011;68371;42.630;23.192;2023-05-24T03:25:17;10.23;;;5.57;;
64601;SDS011;68371;42.630;23.192;2023-05-24T03:27:45;14.48;;;5.97;;
64601;SDS011;68371;42.630;23.192;2023-05-24T03:30:12;11.95;;;6.38;;
64601;SDS011;68371;42.630;23.192;2023-05-24T03:32:41;11.02;;;5.93;;
64601;SDS011;68371;42.630;23.192;2023-05-24T03:35:08;10.32;;;5.60;;
64601;SDS011;68371;42.630;23.192;2023-05-24T03:37:36;9.73;;;5.57;;
64601;SDS011;68371;42.630;23.192;2023-05-24T03:40:03;9.18;;;5.72;;
64601;SDS011;68371;42.630;23.192;2023-05-24T03:42:32;9.82;;;5.25;;
64601;SDS011;68371;42.630;23.192;2023-05-24T03:44:58;9.50;;;5.88;;
64601;SDS011;68371;42.630;23.192;2023-05-24T03:47:25;9.68;;;5.35;;
64601;SDS011;68371;42.630;23.192;2023-05-24T03:49:51;13.45;;;5.40;;
64601;SDS011;68371;42.630;23.192;2023-05-24T03:52:18;11.35;;;6.15;;
64601;SDS011;68371;42.630;23.192;2023-05-24T03:54:45;15.40;;;5.40;;
64601;SDS011;68371;42.630;23.192;2023-05-24T03:57:13;7.93;;;4.93;;
64601;SDS011;68371;42.630;23.192;2023-05-24T03:59:42;9.75;;;5.30;;
64601;SDS011;68371;42.630;23.192;2023-05-24T04:02:11;8.15;;;5.28;;
64601;SDS011;68371;42.630;23.192;2023-05-24T04:04:37;9.98;;;5.10;;
64601;SDS011;68371;42.630;23.192;2023-05-24T04:07:04;9.57;;;5.85;;
64601;SDS011;68371;42.630;23.192;2023-05-24T04:09:32;11.82;;;5.95;;
64601;SDS011;68371;42.630;23.192;2023-05-24T04:11:58;8.93;;;5.72;;
64601;SDS011;68371;42.630;23.192;2023-05-24T04:14:25;8.05;;;5.47;;
64601;SDS011;68371;42.630;23.192;2023-05-24T04:16:53;9.02;;;5.68;;
64601;SDS011;68371;42.630;23.192;2023-05-24T04:19:21;20.42;;;6.10;;
64601;SDS011;68371;42.630;23.192;2023-05-24T04:21:48;14.43;;;5.72;;
64601;SDS011;68371;42.630;23.192;2023-05-24T04:24:15;34.92;;;6.50;;
64601;SDS011;68371;42.630;23.192;2023-05-24T04:26:43;18.85;;;5.82;;
64601;SDS011;68371;42.630;23.192;2023-05-24T04:29:12;16.95;;;6.07;;
64601;SDS011;68371;42.630;23.192;2023-05-24T04:31:39;11.25;;;6.00;;
64601;SDS011;68371;42.630;23.192;2023-05-24T04:34:08;9.43;;;6.32;;
64601;SDS011;68371;42.630;23.192;2023-05-24T04:36:37;16.50;;;6.40;;
64601;SDS011;68371;42.630;23.192;2023-05-24T04:39:03;12.55;;;6.80;;
64601;SDS011;68371;42.630;23.192;2023-05-24T04:41:30;16.20;;;6.78;;
64601;SDS011;68371;42.630;23.192;2023-05-24T04:43:59;15.02;;;6.88;;
64601;SDS011;68371;42.630;23.192;2023-05-24T04:46:26;13.15;;;6.10;;
64601;SDS011;68371;42.630;23.192;2023-05-24T04:48:53;14.73;;;6.10;;
64601;SDS011;68371;42.630;23.192;2023-05-24T04:51:21;11.02;;;5.80;;
64601;SDS011;68371;42.630;23.192;2023-05-24T04:53:51;13.57;;;6.00;;
64601;SDS011;68371;42.630;23.192;2023-05-24T04:56:20;11.50;;;5.93;;
64601;SDS011;68371;42.630;23.192;2023-05-24T04:58:49;10.75;;;5.72;;
64601;SDS011;68371;42.630;23.192;2023-05-24T05:01:15;13.23;;;5.75;;
64601;SDS011;68371;42.630;23.192;2023-05-24T05:03:44;8.98;;;4.95;;
64601;SDS011;68371;42.630;23.192;2023-05-24T05:06:11;9.45;;;4.95;;
64601;SDS011;68371;42.630;23.192;2023-05-24T05:08:39;10.00;;;4.60;;
64601;SDS011;68371;42.630;23.192;2023-05-24T05:11:05;11.57;;;4.38;;
64601;SDS011;68371;42.630;23.192;2023-05-24T05:13:35;7.60;;;4.30;;
64601;SDS011;68371;42.630;23.192;2023-05-24T05:16:02;5.55;;;3.60;;
64601;SDS011;68371;42.630;23.192;2023-05-24T05:18:29;5.53;;;3.50;;
64601;SDS011;68371;42.630;23.192;2023-05-24T05:20:56;6.38;;;3.83;;
64601;SDS011;68371;42.630;23.192;2023-05-24T05:23:22;7.22;;;3.90;;
64601;SDS011;68371;42.630;23.192;2023-05-24T05:25:51;5.63;;;3.85;;
64601;SDS011;68371;42.630;23.192;2023-05-24T05:28:18;6.82;;;4.47;;
64601;SDS011;68371;42.630;23.192;2023-05-24T05:30:46;5.90;;;3.90;;
64601;SDS011;68371;42.630;23.192;2023-05-24T05:33:13;8.90;;;3.85;;
64601;SDS011;68371;42.630;23.192;2023-05-24T05:35:40;8.90;;;4.13;;
64601;SDS011;68371;42.630;23.192;2023-05-24T05:38:07;5.78;;;3.58;;
64601;SDS011;68371;42.630;23.192;2023-05-24T05:40:33;5.82;;;3.78;;
64601;SDS011;68371;42.630;23.192;2023-05-24T05:43:01;7.43;;;3.50;;
64601;SDS011;68371;42.630;23.192;2023-05-24T05:45:28;6.20;;;3.90;;
64601;SDS011;68371;42.630;23.192;2023-05-24T05:47:55;5.78;;;3.67;;
64601;SDS011;68371;42.630;23.192;2023-05-24T05:50:22;7.85;;;3.63;;
64601;SDS011;68371;42.630;23.192;2023-05-24T05:52:48;6.22;;;3.45;;
64601;SDS011;68371;42.630;23.192;2023-05-24T05:55:17;7.65;;;3.58;;
64601;SDS011;68371;42.630;23.192;2023-05-24T05:57:44;9.15;;;3.92;;
64601;SDS011;68371;42.630;23.192;2023-05-24T06:00:13;7.80;;;4.18;;
64601;SDS011;68371;42.630;23.192;2023-05-24T06:02:40;7.82;;;4.07;;
64601;SDS011;68371;42.630;23.192;2023-05-24T06:05:07;9.07;;;4.15;;
64601;SDS011;68371;42.630;23.192;2023-05-24T06:07:34;7.63;;;4.00;;
64601;SDS011;68371;42.630;23.192;2023-05-24T06:10:02;9.50;;;4.25;;
64601;SDS011;68371;42.630;23.192;2023-05-24T06:12:30;9.38;;;4.60;;
64601;SDS011;68371;42.630;23.192;2023-05-24T06:14:56;7.97;;;4.00;;
64601;SDS011;68371;42.630;23.192;2023-05-24T06:17:25;6.60;;;3.65;;
64601;SDS011;68371;42.630;23.192;2023-05-24T06:19:52;8.27;;;4.30;;
64601;SDS011;68371;42.630;23.192;2023-05-24T06:22:22;6.70;;;3.80;;
64601;SDS011;68371;42.630;23.192;2023-05-24T06:24:49;9.77;;;3.50;;
64601;SDS011;68371;42.630;23.192;2023-05-24T06:27:16;11.60;;;3.70;;
64601;SDS011;68371;42.630;23.192;2023-05-24T06:29:43;7.13;;;3.63;;
64601;SDS011;68371;42.630;23.192;2023-05-24T06:32:10;6.53;;;4.10;;
64601;SDS011;68371;42.630;23.192;2023-05-24T06:34:38;9.13;;;4.35;;
64601;SDS011;68371;42.630;23.192;2023-05-24T06:37:05;9.85;;;4.50;;
64601;SDS011;68371;42.630;23.192;2023-05-24T06:39:34;8.02;;;5.05;;
64601;SDS011;68371;42.630;23.192;2023-05-24T06:42:01;8.82;;;4.65;;
64601;SDS011;68371;42.630;23.192;2023-05-24T06:44:27;12.88;;;4.47;;
64601;SDS011;68371;42.630;23.192;2023-05-24T06:46:58;8.43;;;4.95;;
64601;SDS011;68371;42.630;23.192;2023-05-24T06:49:25;6.13;;;4.50;;
64601;SDS011;68371;42.630;23.192;2023-05-24T06:51:53;9.25;;;4.95;;
64601;SDS011;68371;42.630;23.192;2023-05-24T06:54:20;8.10;;;4.70;;
64601;SDS011;68371;42.630;23.192;2023-05-24T06:56:47;8.90;;;4.45;;
64601;SDS011;68371;42.630;23.192;2023-05-24T06:59:13;7.65;;;4.43;;
64601;SDS011;68371;42.630;23.192;2023-05-24T07:01:40;7.63;;;4.03;;
64601;SDS011;68371;42.630;23.192;2023-05-24T07:04:07;8.07;;;4.80;;
64601;SDS011;68371;42.630;23.192;2023-05-24T07:06:34;9.73;;;3.88;;
64601;SDS011;68371;42.630;23.192;2023-05-24T07:09:03;6.93;;;3.95;;
64601;SDS011;68371;42.630;23.192;2023-05-24T07:11:30;8.77;;;4.20;;
64601;SDS011;68371;42.630;23.192;2023-05-24T07:13:57;8.18;;;4.55;;
64601;SDS011;68371;42.630;23.192;2023-05-24T07:16:24;18.85;;;10.80;;
64601;SDS011;68371;42.630;23.192;2023-05-24T07:18:51;9.48;;;4.70;;
64601;SDS011;68371;42.630;23.192;2023-05-24T07:21:22;5.65;;;3.88;;
64601;SDS011;68371;42.630;23.192;2023-05-24T07:23:50;6.65;;;4.00;;
64601;SDS011;68371;42.630;23.192;2023-05-24T07:26:18;8.98;;;3.40;;
64601;SDS011;68371;42.630;23.192;2023-05-24T07:28:46;8.77;;;3.95;;
64601;SDS011;68371;42.630;23.192;2023-05-24T07:31:12;9.25;;;3.40;;
64601;SDS011;68371;42.630;23.192;2023-05-24T07:33:40;4.88;;;3.08;;
64601;SDS011;68371;42.630;23.192;2023-05-24T07:36:07;4.97;;;3.45;;
64601;SDS011;68371;42.630;23.192;2023-05-24T07:38:34;15.65;;;3.90;;
64601;SDS011;68371;42.630;23.192;2023-05-24T07:41:01;14.70;;;3.42;;
64601;SDS011;68371;42.630;23.192;2023-05-24T07:43:30;8.55;;;4.40;;
64601;SDS011;68371;42.630;23.192;2023-05-24T07:45:56;5.95;;;4.30;;
64601;SDS011;68371;42.630;23.192;2023-05-24T07:48:23;8.68;;;3.85;;
64601;SDS011;68371;42.630;23.192;2023-05-24T07:50:51;12.48;;;4.60;;
64601;SDS011;68371;42.630;23.192;2023-05-24T07:53:19;6.55;;;3.85;;
64601;SDS011;68371;42.630;23.192;2023-05-24T07:55:47;7.40;;;3.80;;
64601;SDS011;68371;42.630;23.192;2023-05-24T07:58:14;6.50;;;3.72;;
64601;SDS011;68371;42.630;23.192;2023-05-24T08:00:42;5.07;;;3.40;;
64601;SDS011;68371;42.630;23.192;2023-05-24T08:03:09;8.55;;;3.30;;
64601;SDS011;68371;42.630;23.192;2023-05-24T08:05:38;5.60;;;3.00;;
64601;SDS011;68371;42.630;23.192;2023-05-24T08:08:05;6.50;;;3.75;;
64601;SDS011;68371;42.630;23.192;2023-05-24T08:10:33;4.68;;;3.25;;
64601;SDS011;68371;42.630;23.192;2023-05-24T08:13:00;7.70;;;3.70;;
64601;SDS011;68371;42.630;23.192;2023-05-24T08:15:29;4.18;;;2.83;;
64601;SDS011;68371;42.630;23.192;2023-05-24T08:17:58;8.57;;;3.63;;
64601;SDS011;68371;42.630;23.192;2023-05-24T08:20:25;10.45;;;3.00;;
64601;SDS011;68371;42.630;23.192;2023-05-24T08:22:54;7.38;;;3.08;;
64601;SDS011;68371;42.630;23.192;2023-05-24T08:25:22;6.18;;;3.35;;
64601;SDS011;68371;42.630;23.192;2023-05-24T08:27:50;7.68;;;2.78;;
64601;SDS011;68371;42.630;23.192;2023-05-24T08:30:16;7.22;;;2.90;;
64601;SDS011;68371;42.630;23.192;2023-05-24T08:32:44;15.35;;;3.28;;
64601;SDS011;68371;42.630;23.192;2023-05-24T08:35:12;26.55;;;3.72;;
64601;SDS011;68371;42.630;23.192;2023-05-24T08:37:38;31.60;;;4.60;;
64601;SDS011;68371;42.630;23.192;2023-05-24T08:40:06;7.57;;;3.65;;
64601;SDS011;68371;42.630;23.192;2023-05-24T08:42:34;18.48;;;3.72;;
64601;SDS011;68371;42.630;23.192;2023-05-24T08:45:06;8.50;;;3.25;;
64601;SDS011;68371;42.630;23.192;2023-05-24T08:47:34;6.22;;;3.42;;
64601;SDS011;68371;42.630;23.192;2023-05-24T08:50:02;33.20;;;9.48;;
64601;SDS011;68371;42.630;23.192;2023-05-24T08:52:31;18.27;;;5.00;;
64601;SDS011;68371;42.630;23.192;2023-05-24T08:54:59;12.35;;;4.22;;
64601;SDS011;68371;42.630;23.192;2023-05-24T08:57:27;4.82;;;2.72;;
64601;SDS011;68371;42.630;23.192;2023-05-24T08:59:57;10.60;;;3.05;;
64601;SDS011;68371;42.630;23.192;2023-05-24T09:02:25;6.72;;;3.20;;
64601;SDS011;68371;42.630;23.192;2023-05-24T09:04:52;6.18;;;3.13;;
64601;SDS011;68371;42.630;23.192;2023-05-24T09:07:20;12.23;;;3.47;;
64601;SDS011;68371;42.630;23.192;2023-05-24T09:09:51;6.93;;;2.95;;
64601;SDS011;68371;42.630;23.192;2023-05-24T09:12:22;5.13;;;2.92;;
64601;SDS011;68371;42.630;23.192;2023-05-24T09:14:51;7.47;;;3.20;;
64601;SDS011;68371;42.630;23.192;2023-05-24T09:17:18;5.03;;;3.03;;
64601;SDS011;68371;42.630;23.192;2023-05-24T09:19:46;8.93;;;3.08;;
64601;SDS011;68371;42.630;23.192;2023-05-24T09:22:13;8.15;;;3.10;;
64601;SDS011;68371;42.630;23.192;2023-05-24T09:24:46;20.50;;;3.42;;
64601;SDS011;68371;42.630;23.192;2023-05-24T09:27:14;8.30;;;3.03;;
64601;SDS011;68371;42.630;23.192;2023-05-24T09:29:42;4.63;;;3.17;;
64601;SDS011;68371;42.630;23.192;2023-05-24T09:32:10;8.65;;;3.10;;
64601;SDS011;68371;42.630;23.192;2023-05-24T09:34:38;6.65;;;2.97;;
64601;SDS011;68371;42.630;23.192;2023-05-24T09:37:05;7.78;;;3.05;;
64601;SDS011;68371;42.630;23.192;2023-05-24T09:39:37;5.80;;;2.55;;
64601;SDS011;68371;42.630;23.192;2023-05-24T09:42:06;6.20;;;3.10;;
64601;SDS011;68371;42.630;23.192;2023-05-24T09:44:34;4.63;;;3.03;;
64601;SDS011;68371;42.630;23.192;2023-05-24T09:47:01;3.35;;;2.30;;
64601;SDS011;68371;42.630;23.192;2023-05-24T09:49:31;5.93;;;2.22;;
64601;SDS011;68371;42.630;23.192;2023-05-24T09:52:01;3.47;;;2.50;;
64601;SDS011;68371;42.630;23.192;2023-05-24T09:54:29;6.32;;;2.65;;
64601;SDS011;68371;42.630;23.192;2023-05-24T09:56:59;5.65;;;2.35;;
64601;SDS011;68371;42.630;23.192;2023-05-24T09:59:32;5.40;;;2.72;;
64601;SDS011;68371;42.630;23.192;2023-05-24T10:02:06;14.73;;;5.07;;
64601;SDS011;68371;42.630;23.192;2023-05-24T10:04:35;4.60;;;2.80;;
64601;SDS011;68371;42.630;23.192;2023-05-24T10:07:02;4.55;;;2.38;;
64601;SDS011;68371;42.630;23.192;2023-05-24T10:09:30;5.00;;;2.40;;
64601;SDS011;68371;42.630;23.192;2023-05-24T10:12:00;7.10;;;2.30;;
64601;SDS011;68371;42.630;23.192;2023-05-24T10:14:30;9.18;;;2.45;;
64601;SDS011;68371;42.630;23.192;2023-05-24T10:17:03;7.10;;;2.33;;
64601;SDS011;68371;42.630;23.192;2023-05-24T10:21:58;3.25;;;2.33;;
64601;SDS011;68371;42.630;23.192;2023-05-24T10:24:31;4.20;;;2.53;;
64601;SDS011;68371;42.630;23.192;2023-05-24T10:27:04;3.95;;;2.55;;
64601;SDS011;68371;42.630;23.192;2023-05-24T10:29:40;3.70;;;2.40;;
64601;SDS011;68371;42.630;23.192;2023-05-24T10:32:15;5.43;;;2.00;;
64601;SDS011;68371;42.630;23.192;2023-05-24T10:34:44;6.00;;;2.35;;
64601;SDS011;68371;42.630;23.192;2023-05-24T10:37:13;3.80;;;2.45;;
64601;SDS011;68371;42.630;23.192;2023-05-24T10:39:40;9.73;;;2.35;;
64601;SDS011;68371;42.630;23.192;2023-05-24T10:42:07;5.32;;;2.10;;
64601;SDS011;68371;42.630;23.192;2023-05-24T10:44:34;4.03;;;2.20;;
64601;SDS011;68371;42.630;23.192;2023-05-24T10:47:01;4.63;;;2.20;;
64601;SDS011;68371;42.630;23.192;2023-05-24T10:49:38;3.67;;;2.20;;
64601;SDS011;68371;42.630;23.192;2023-05-24T10:52:12;3.83;;;2.10;;
64601;SDS011;68371;42.630;23.192;2023-05-24T10:54:39;3.17;;;2.20;;
64601;SDS011;68371;42.630;23.192;2023-05-24T10:57:06;3.88;;;2.05;;
64601;SDS011;68371;42.630;23.192;2023-05-24T10:59:35;7.43;;;2.22;;
64601;SDS011;68371;42.630;23.192;2023-05-24T11:02:05;10.80;;;2.35;;
64601;SDS011;68371;42.630;23.192;2023-05-24T11:04:39;9.63;;;2.33;;
64601;SDS011;68371;42.630;23.192;2023-05-24T11:07:08;6.60;;;2.25;;
64601;SDS011;68371;42.630;23.192;2023-05-24T11:09:36;5.78;;;2.40;;
64601;SDS011;68371;42.630;23.192;2023-05-24T11:12:10;4.88;;;2.30;;
64601;SDS011;68371;42.630;23.192;2023-05-24T11:14:40;7.78;;;2.45;;
64601;SDS011;68371;42.630;23.192;2023-05-24T11:17:12;6.05;;;2.78;;
64601;SDS011;68371;42.630;23.192;2023-05-24T11:19:45;13.90;;;3.33;;
64601;SDS011;68371;42.630;23.192;2023-05-24T11:22:13;5.70;;;2.60;;
64601;SDS011;68371;42.630;23.192;2023-05-24T11:24:40;4.60;;;2.22;;
64601;SDS011;68371;42.630;23.192;2023-05-24T11:27:09;6.70;;;2.83;;
64601;SDS011;68371;42.630;23.192;2023-05-24T11:29:40;6.13;;;2.38;;
64601;SDS011;68371;42.630;23.192;2023-05-24T11:34:34;6.75;;;2.67;;
64601;SDS011;68371;42.630;23.192;2023-05-24T11:37:03;7.93;;;3.25;;
64601;SDS011;68371;42.630;23.192;2023-05-24T11:39:33;5.53;;;2.17;;
64601;SDS011;68371;42.630;23.192;2023-05-24T11:42:03;5.00;;;2.13;;
64601;SDS011;68371;42.630;23.192;2023-05-24T11:44:33;2.85;;;2.00;;
64601;SDS011;68371;42.630;23.192;2023-05-24T11:47:04;11.23;;;2.45;;
64601;SDS011;68371;42.630;23.192;2023-05-24T11:49:33;5.15;;;2.20;;
64601;SDS011;68371;42.630;23.192;2023-05-24T11:52:00;5.68;;;2.40;;
64601;SDS011;68371;42.630;23.192;2023-05-24T11:54:29;3.95;;;2.50;;
64601;SDS011;68371;42.630;23.192;2023-05-24T11:56:57;5.18;;;2.28;;
64601;SDS011;68371;42.630;23.192;2023-05-24T11:59:24;3.72;;;2.28;;
64601;SDS011;68371;42.630;23.192;2023-05-24T12:01:59;6.82;;;2.25;;
64601;SDS011;68371;42.630;23.192;2023-05-24T12:04:27;4.47;;;2.50;;
64601;SDS011;68371;42.630;23.192;2023-05-24T12:06:55;4.90;;;2.63;;
64601;SDS011;68371;42.630;23.192;2023-05-24T12:09:23;3.97;;;2.45;;
64601;SDS011;68371;42.630;23.192;2023-05-24T12:11:51;5.85;;;2.40;;
64601;SDS011;68371;42.630;23.192;2023-05-24T12:14:19;6.10;;;1.98;;
64601;SDS011;68371;42.630;23.192;2023-05-24T12:16:52;6.57;;;2.55;;
64601;SDS011;68371;42.630;23.192;2023-05-24T12:19:21;6.38;;;2.50;;
64601;SDS011;68371;42.630;23.192;2023-05-24T12:21:50;3.42;;;2.15;;
64601;SDS011;68371;42.630;23.192;2023-05-24T12:24:21;12.63;;;2.40;;
64601;SDS011;68371;42.630;23.192;2023-05-24T12:26:48;5.25;;;2.20;;
64601;SDS011;68371;42.630;23.192;2023-05-24T12:29:18;6.03;;;2.47;;
64601;SDS011;68371;42.630;23.192;2023-05-24T12:31:46;10.05;;;2.75;;
64601;SDS011;68371;42.630;23.192;2023-05-24T12:34:14;4.65;;;2.22;;
64601;SDS011;68371;42.630;23.192;2023-05-24T12:36:41;7.68;;;2.30;;
64601;SDS011;68371;42.630;23.192;2023-05-24T12:39:18;4.13;;;2.60;;
64601;SDS011;68371;42.630;23.192;2023-05-24T12:41:49;5.93;;;2.40;;
64601;SDS011;68371;42.630;23.192;2023-05-24T12:44:22;6.18;;;2.50;;
64601;SDS011;68371;42.630;23.192;2023-05-24T12:46:51;3.78;;;2.45;;
64601;SDS011;68371;42.630;23.192;2023-05-24T12:49:18;6.05;;;2.40;;
64601;SDS011;68371;42.630;23.192;2023-05-24T12:51:45;3.72;;;2.35;;
64601;SDS011;68371;42.630;23.192;2023-05-24T12:54:12;4.55;;;2.50;;
64601;SDS011;68371;42.630;23.192;2023-05-24T12:56:38;4.57;;;2.50;;
64601;SDS011;68371;42.630;23.192;2023-05-24T12:59:07;5.82;;;2.50;;
64601;SDS011;68371;42.630;23.192;2023-05-24T13:01:36;6.70;;;2.58;;
64601;SDS011;68371;42.630;23.192;2023-05-24T13:04:03;4.72;;;2.40;;
64601;SDS011;68371;42.630;23.192;2023-05-24T13:06:30;6.32;;;2.05;;
64601;SDS011;68371;42.630;23.192;2023-05-24T13:08:56;3.53;;;2.00;;
64601;SDS011;68371;42.630;23.192;2023-05-24T13:11:23;10.57;;;2.30;;
64601;SDS011;68371;42.630;23.192;2023-05-24T13:13:51;3.65;;;1.98;;
64601;SDS011;68371;42.630;23.192;2023-05-24T13:16:18;5.65;;;2.00;;
64601;SDS011;68371;42.630;23.192;2023-05-24T13:18:47;5.75;;;2.10;;
64601;SDS011;68371;42.630;23.192;2023-05-24T13:21:13;5.60;;;2.63;;
64601;SDS011;68371;42.630;23.192;2023-05-24T13:23:42;3.55;;;2.38;;
64601;SDS011;68371;42.630;23.192;2023-05-24T13:26:08;4.43;;;2.33;;
64601;SDS011;68371;42.630;23.192;2023-05-24T13:28:37;4.95;;;2.28;;
64601;SDS011;68371;42.630;23.192;2023-05-24T13:31:04;6.20;;;2.38;;
64601;SDS011;68371;42.630;23.192;2023-05-24T13:33:30;3.50;;;2.47;;
64601;SDS011;68371;42.630;23.192;2023-05-24T13:35:59;4.45;;;2.53;;
64601;SDS011;68371;42.630;23.192;2023-05-24T13:38:25;4.05;;;2.45;;
64601;SDS011;68371;42.630;23.192;2023-05-24T13:40:52;4.68;;;2.35;;
64601;SDS011;68371;42.630;23.192;2023-05-24T13:43:20;5.32;;;2.15;;
64601;SDS011;68371;42.630;23.192;2023-05-24T13:45:47;5.72;;;2.53;;
64601;SDS011;68371;42.630;23.192;2023-05-24T13:48:14;5.70;;;2.50;;
64601;SDS011;68371;42.630;23.192;2023-05-24T13:50:40;3.42;;;2.20;;
64601;SDS011;68371;42.630;23.192;2023-05-24T13:53:10;3.63;;;2.35;;
64601;SDS011;68371;42.630;23.192;2023-05-24T13:58:05;6.13;;;2.50;;
64601;SDS011;68371;42.630;23.192;2023-05-24T14:00:32;3.65;;;2.20;;
64601;SDS011;68371;42.630;23.192;2023-05-24T14:03:00;4.18;;;2.17;;
64601;SDS011;68371;42.630;23.192;2023-05-24T14:05:27;6.63;;;2.50;;
64601;SDS011;68371;42.630;23.192;2023-05-24T14:07:55;4.65;;;2.53;;
64601;SDS011;68371;42.630;23.192;2023-05-24T14:10:25;9.07;;;2.72;;
64601;SDS011;68371;42.630;23.192;2023-05-24T14:12:52;3.92;;;2.55;;
64601;SDS011;68371;42.630;23.192;2023-05-24T14:15:19;5.22;;;2.60;;
64601;SDS011;68371;42.630;23.192;2023-05-24T14:17:45;3.75;;;2.35;;
64601;SDS011;68371;42.630;23.192;2023-05-24T14:20:14;7.10;;;2.53;;
64601;SDS011;68371;42.630;23.192;2023-05-24T14:22:40;3.63;;;2.60;;
64601;SDS011;68371;42.630;23.192;2023-05-24T14:25:09;5.68;;;2.75;;
64601;SDS011;68371;42.630;23.192;2023-05-24T14:27:37;3.78;;;2.70;;
64601;SDS011;68371;42.630;23.192;2023-05-24T14:30:05;6.32;;;3.08;;
64601;SDS011;68371;42.630;23.192;2023-05-24T14:32:33;3.78;;;2.72;;
64601;SDS011;68371;42.630;23.192;2023-05-24T14:35:00;6.25;;;2.65;;
64601;SDS011;68371;42.630;23.192;2023-05-24T14:37:27;5.18;;;2.55;;
64601;SDS011;68371;42.630;23.192;2023-05-24T14:39:53;8.15;;;2.60;;
64601;SDS011;68371;42.630;23.192;2023-05-24T14:42:20;4.15;;;2.80;;
64601;SDS011;68371;42.630;23.192;2023-05-24T14:44:48;6.00;;;2.70;;